Sonic Adventure (DX): Boss Rankings

Records: Times | Rings | Scores | Races | Bosses | Freestyle
Leaders: Times | Rings | Scores | Races | Bosses | Freestyle | Overall
Rank Player Percent Points Date
1 Sonicspeedruner 98.7% 24 01-26-15
2 Gamepro011 96.9% 60 01-26-15
3 Austinf 93.4% 130 01-26-15
4 DarkPolarNight 92.3% 150 01-26-15
5 Jawzun 90.6% 184 01-26-15
6 Parax 88.9% 218 01-26-15
7 ike6252 88.7% 221 01-26-15
8 Dashjump 86.7% 261 01-26-15
9 Avento128bits 86.0% 275 01-26-15
10 DarkspinesSonic 83.2% 331 01-26-15
11 Coolfansonic 81.4% 366 01-26-15
12 THC98 80.0% 393 01-26-15
13 F-Man 78.9% 416 01-26-15
14 Marth 78.0% 432 01-26-15
15 yoshifan 76.4% 464 01-26-15
16 PfoSonic 74.9% 494 01-26-15
17 InferSaime 74.4% 504 01-26-15
18 HyperSonic7701 72.6% 540 01-26-15
19 RPGnutter 71.9% 554 01-26-15
20 Paragod 70.4% 583 01-26-15
21 mike89 69.9% 593 01-26-15
22 frankoredstrato 69.7% 596 01-26-15
23 Groudon199 65.3% 683 01-26-15
24 sonicam 65.2% 685 01-26-15
25 SadisticMystic 64.4% 702 01-26-15
26 Stefan 63.6% 717 01-26-15
27 Diamond 62.2% 744 01-26-15
28 Combo 59.6% 796 01-26-15
29 bertin 59.0% 807 01-26-15
30 drminus 57.8% 832 01-26-15
31 SkyLights 56.8% 851 01-26-15
32 SonicDash1999 56.5% 857 01-26-15
33 Dawid8404 52.9% 927 01-26-15
34 Fr3nZy 50.8% 969 01-26-15
35 francisco 50.4% 977 01-26-15
36 OmegaDJ 48.6% 1013 01-26-15
37 Arch 47.1% 1042 01-26-15
38 P1 Pause 45.9% 1065 01-26-15
39 Omega Rafael Santos 44.9% 1086 01-26-15
40 magnum12 43.5% 1114 01-26-15
41 Andrea Ritsu 43.3% 1118 01-26-15
42 Auriman1 39.3% 1196 01-26-15
43 James_Bertolli 36.6% 1249 01-26-15
44 teamblackarms 35.2% 1276 01-26-15
45 FuzZerd 34.2% 1296 01-26-15
46 Hunters13 33.8% 1304 01-26-15
47 Psymar 33.3% 1315 01-26-15
48 Quartz 33.1% 1319 01-26-15
49 eggFL 32.8% 1324 01-26-15
50 Cyan Ryan 32.4% 1333 01-26-15
51 GerbilSoft 31.5% 1350 01-26-15
52 elecmouse101 31.2% 1356 01-26-15
53 Thorn 31.1% 1358 01-26-15
54 Webber3000 30.7% 1366 01-26-15
55 videogamemaster777 30.4% 1371 01-26-15
56 Mo Player Banned 29.6% 1388 01-26-15
57 Turbos 28.8% 1403 01-26-15
58 Termon 27.6% 1427 01-26-15
59 Dave Cramer 26.8% 1443 01-26-15
60 Flying Fox 26.2% 1455 01-26-15
61 buddychaos0415 26.1% 1456 01-26-15
62 nuckrieg 25.6% 1467 01-26-15
63 Shadow Jacky 24.4% 1490 01-26-15
64 Cream147 21.9% 1540 01-26-15
65 supersonicfan 21.6% 1545 01-26-15
66 MiStEr_ShAoLiN 21.5% 1547 01-26-15
67 NintenDan 21.2% 1552 01-26-15
68 The T 21.1% 1555 01-26-15
69 itsPersonnal 20.9% 1559 01-26-15
70 Cybrax 20.8% 1561 01-26-15
71 supersonic465 20.5% 1566 01-26-15
72 Nimrod 20.1% 1575 01-26-15
73 Aitamen 19.9% 1578 01-26-15
74 Cruizer 19.3% 1590 01-26-15
75 VMU Player Banned 18.1% 1614 01-26-15
76 The Great Lord Mick 17.0% 1635 01-26-15
77 GreatStar 16.2% 1652 01-26-15
78 Questionguy555 16.0% 1655 01-26-15
79 Spinballwizard 15.5% 1666 01-26-15
80 Sondow 14.7% 1681 01-26-15
81 sonicandamy 14.3% 1690 01-26-15
82 GarnetPrincess 13.5% 1705 01-26-15
83 SonicAD 12.4% 1726 01-26-15
84 Don 11.6% 1742 01-26-15
85 Miles9999 11.1% 1753 01-26-15
85 Siavash Tazari 11.1% 1753 01-26-15
87 BigAL49 10.6% 1761 01-26-15
88 Psyknux 10.2% 1769 01-26-15
89 Werey 10.2% 1770 01-26-15
90 Cutiefox 10.1% 1772 01-26-15
91 joecoolgames 10.0% 1773 01-26-15
92 knuckles_sonic8 9.8% 1777 01-26-15
93 mauserman 9.5% 1784 01-26-15
94 EngiNerd 9.0% 1794 01-26-15
95 Sonic Singularity 8.9% 1796 01-26-15
96 dShadow 8.7% 1800 01-26-15
97 SonicWinDX 8.5% 1804 01-26-15
98 Mariobutch 8.4% 1805 01-26-15
99 Hipertails12 8.3% 1808 01-26-15
100 Shanekilz 8.2% 1810 01-26-15
101 Therio 7.8% 1818 01-26-15
102 Mastakirby 7.5% 1824 01-26-15
103 chainchumper 7.3% 1828 01-26-15
104 sonic29887 7.0% 1832 01-26-15
105 TheChaosEmeraIds 6.9% 1834 01-26-15
106 Chao_Fan 6.8% 1837 01-26-15
107 FocusSight64 6.6% 1840 01-26-15
108 tal39h 6.2% 1849 01-26-15
109 djmat 6.1% 1850 01-26-15
110 Sogeking 5.6% 1860 01-26-15
111 Brian_pso 5.1% 1871 01-26-15
112 Chawkk 5.0% 1872 01-26-15
113 SilvertheAlmighty 4.8% 1877 01-26-15
114 MK 4.6% 1880 01-26-15
115 MastaToken 4.4% 1884 01-26-15
115 SpinDashMaster 4.4% 1884 01-26-15
117 SpiritDragon1995 4.0% 1892 01-26-15
118 Sonique Hedgehog 3.9% 1894 01-26-15
119 KinkyCadence 3.7% 1899 01-26-15
120 Mad Andy 3.5% 1902 01-26-15
121 PsyBorg 3.4% 1904 01-26-15
122 FSSRandomvids 3.2% 1908 01-26-15
123 Xia 3.0% 1912 01-26-15
124 Rolken 2.9% 1914 01-26-15
125 andres430 2.7% 1917 01-26-15
126 dabestgamer 2.4% 1924 01-26-15
127 crazy1993 2.3% 1926 01-26-15
128 shadowblast63 Player Banned 2.2% 1927 01-26-15
129 Illidan 2.1% 1929 01-26-15
130 Richied 2.0% 1931 01-26-15
131 gamer1245 1.9% 1934 01-26-15
132 DanielTheFalcon 1.8% 1935 01-26-15
132 Iwannabelink 1.8% 1935 01-26-15
134 oTaiIilLsS 1.4% 1943 01-26-15
135 soniccoloursunleashed 1.3% 1945 01-26-15
136 niscool 1.3% 1946 01-26-15
137 ieatatsonic 1.1% 1949 01-26-15
138 Redd 1.1% 1950 01-26-15
139 Lil_Dude 0.8% 1956 01-26-15
139 LinksDarkArrows 0.8% 1956 01-26-15
141 Cbwade15 0.4% 1963 01-26-15
142 neaolas 0.3% 1965 01-26-15
143 BlankTH 0.2% 1967 01-26-15
144 Heroes_Hater 0.2% 1968 01-26-15
145 KaM Mark MaK 0.0% 1972 01-26-15
145 MegabombBlade 0.0% 1972 01-26-15

This page is using the New Data Table System. [FUTURE]

Game ID: 3 | Category ID: 6
Hits: 3,794 | Hits This Month: 33 | DB Calls: 24 | Mem Usage: 5.33 MB | Time: 0.06s | Printable

The Sonic Center v3.9
Copyright 2003-2011 by The Sonic Center Team.